Time;durP1;ratioP1;P1;durP2;ratioP2;P2;SDS_P1;SDS_P2;PMS_P1;PMS_P2;Temp;Humidity;BMP_temperature;BMP_pressure;BME280_temperature;BME280_humidity;BME280_pressure;Samples;Min_cycle;Max_cycle;Signal;HPM_P1;HPM_P2
2021/01/29 00:01:16;;;;;;;3.67;1.75;;;-1.60;99.90;;;;;;5046033;28;20113;-55
2021/01/29 00:03:42;;;;;;;4.45;1.85;;;-1.60;99.90;;;;;;5051907;28;20490;-56
2021/01/29 00:06:07;;;;;;;2.92;1.55;;;-1.60;99.90;;;;;;5051999;28;20369;-56
2021/01/29 00:08:36;;;;;;;3.65;2.00;;;-1.60;99.90;;;;;;5052002;28;20031;-56
2021/01/29 00:11:02;;;;;;;3.22;2.08;;;-1.60;99.90;;;;;;5051989;28;20036;-55
2021/01/29 00:13:28;;;;;;;5.95;2.17;;;-1.60;99.90;;;;;;5050953;28;20064;-56
2021/01/29 00:15:54;;;;;;;6.15;2.30;;;-1.60;99.90;;;;;;5055669;28;20052;-55
2021/01/29 00:18:21;;;;;;;2.22;1.70;;;-1.50;99.90;;;;;;5055676;28;20029;-53
2021/01/29 00:20:47;;;;;;;4.53;1.90;;;-1.50;99.90;;;;;;5055333;28;20124;-53
2021/01/29 00:23:13;;;;;;;6.13;2.05;;;-1.50;99.90;;;;;;5055627;28;20035;-56
2021/01/29 00:25:42;;;;;;;3.60;1.95;;;-1.60;99.90;;;;;;5055441;28;20514;-52
2021/01/29 00:28:08;;;;;;;3.78;1.92;;;-1.60;99.90;;;;;;5070031;28;20056;-56
2021/01/29 00:30:35;;;;;;;4.47;1.80;;;-1.70;99.90;;;;;;5055195;28;20421;-56
2021/01/29 00:33:03;;;;;;;5.05;1.83;;;-1.80;99.90;;;;;;5055500;28;20083;-56
2021/01/29 00:35:30;;;;;;;5.55;1.85;;;-1.80;99.90;;;;;;5070577;28;20025;-56
2021/01/29 00:37:57;;;;;;;2.15;1.40;;;-1.80;99.90;;;;;;5070832;28;20053;-56
2021/01/29 00:40:23;;;;;;;4.70;1.92;;;-1.90;99.90;;;;;;5054853;28;20112;-56
2021/01/29 00:42:49;;;;;;;4.63;1.98;;;-1.80;99.90;;;;;;5054360;28;20108;-55
2021/01/29 00:45:17;;;;;;;5.10;1.80;;;-1.80;99.90;;;;;;5055074;28;20029;-56
2021/01/29 00:47:43;;;;;;;4.15;2.05;;;-1.70;99.90;;;;;;5070451;28;20068;-55
2021/01/29 00:50:10;;;;;;;4.00;1.48;;;-1.70;99.90;;;;;;5053357;28;20141;-57
2021/01/29 00:52:36;;;;;;;2.95;1.50;;;-1.70;99.90;;;;;;5034742;28;20033;-55
2021/01/29 00:55:01;;;;;;;3.90;2.10;;;-1.60;99.90;;;;;;5035298;28;20040;-52
2021/01/29 00:57:27;;;;;;;2.20;1.55;;;-1.60;99.90;;;;;;5033979;28;20487;-54
2021/01/29 00:59:52;;;;;;;3.13;1.50;;;-1.60;99.90;;;;;;5037693;28;20091;-56
2021/01/29 01:02:18;;;;;;;3.25;1.52;;;-1.60;99.90;;;;;;5054837;28;20029;-55
2021/01/29 01:04:43;;;;;;;3.97;1.85;;;-1.50;99.90;;;;;;5054942;28;20021;-53
2021/01/29 01:07:13;;;;;;;4.18;1.83;;;-1.50;99.90;;;;;;5054734;28;20074;-55
2021/01/29 01:09:38;;;;;;;5.55;1.70;;;-1.50;99.90;;;;;;5054847;28;20052;-55
2021/01/29 01:12:04;;;;;;;4.85;1.73;;;-1.50;99.90;;;;;;5053776;28;20051;-55
2021/01/29 01:14:30;;;;;;;3.38;1.55;;;-1.50;99.90;;;;;;5054534;28;20032;-55
2021/01/29 01:17:07;;;;;;;3.08;1.35;;;-1.50;99.90;;;;;;5054658;28;20021;-58
2021/01/29 01:19:35;;;;;;;2.03;1.17;;;-1.40;99.90;;;;;;5054607;28;20029;-55
2021/01/29 01:22:05;;;;;;;4.78;1.02;;;-1.40;99.90;;;;;;5054292;28;20021;-52
2021/01/29 01:24:30;;;;;;;2.40;1.55;;;-1.40;99.90;;;;;;5054515;28;20040;-56
2021/01/29 01:26:56;;;;;;;3.50;1.38;;;-1.40;99.90;;;;;;5052328;28;20021;-54
2021/01/29 01:29:21;;;;;;;3.25;1.27;;;-1.40;99.90;;;;;;5054456;28;20366;-54
2021/01/29 01:31:47;;;;;;;5.05;1.60;;;-1.40;99.90;;;;;;5054265;28;20029;-56
2021/01/29 01:34:12;;;;;;;2.25;1.27;;;-1.30;99.90;;;;;;5054386;28;20064;-56
2021/01/29 01:36:38;;;;;;;4.82;1.80;;;-1.30;99.90;;;;;;5054113;28;20112;-55
2021/01/29 01:39:04;;;;;;;2.22;1.20;;;-1.30;99.90;;;;;;5054164;28;20045;-53
2021/01/29 01:41:29;;;;;;;3.92;1.35;;;-1.30;99.90;;;;;;5053829;28;20422;-54
2021/01/29 01:43:59;;;;;;;1.98;1.23;;;-1.30;99.90;;;;;;5053288;28;20104;-56
2021/01/29 01:46:24;;;;;;;3.78;1.58;;;-1.30;99.90;;;;;;5069309;28;20021;-59
2021/01/29 01:49:06;;;;;;;6.10;1.80;;;-1.30;99.90;;;;;;5069477;28;20028;-56
2021/01/29 01:51:38;;;;;;;1.35;1.23;;;-1.30;99.90;;;;;;5039724;28;20029;-55
2021/01/29 01:54:18;;;;;;;4.70;1.60;;;-1.20;99.90;;;;;;5033721;28;20414;-55
2021/01/29 01:56:52;;;;;;;5.18;1.60;;;-1.20;99.90;;;;;;5033925;28;20029;-56
2021/01/29 01:59:22;;;;;;;4.85;1.40;;;-1.20;99.90;;;;;;5033755;28;20125;-55
2021/01/29 02:01:51;;;;;;;2.03;1.23;;;-1.20;99.90;;;;;;5052283;28;20037;-56
2021/01/29 02:04:19;;;;;;;3.90;1.55;;;-1.20;99.90;;;;;;5053583;28;20457;-54
2021/01/29 02:06:54;;;;;;;6.47;1.50;;;-1.20;99.90;;;;;;5053508;28;20021;-54
2021/01/29 02:09:23;;;;;;;2.78;1.08;;;-1.20;99.90;;;;;;5053592;28;20031;-54
2021/01/29 02:11:49;;;;;;;3.28;1.33;;;-1.20;99.90;;;;;;5053071;28;20047;-55
2021/01/29 02:14:15;;;;;;;2.22;1.20;;;-1.20;99.90;;;;;;5053323;28;20388;-55
2021/01/29 02:16:53;;;;;;;1.67;1.27;;;-1.20;99.90;;;;;;5053241;28;20032;-57
2021/01/29 02:19:51;;;;;;;2.35;1.23;;;-1.20;99.90;;;;;;5068915;28;20086;-56
2021/01/29 02:22:52;;;;;;;1.25;0.95;;;-1.20;99.90;;;;;;5053293;28;20055;-56
2021/01/29 02:26:05;;;;;;;2.13;1.10;;;-1.20;99.90;;;;;;5053267;28;20358;-55
2021/01/29 02:28:42;;;;;;;3.75;1.10;;;-1.20;99.90;;;;;;5052241;28;20044;-55
2021/01/29 02:31:43;;;;;;;2.60;1.27;;;-1.20;99.90;;;;;;5053163;28;20029;-54
2021/01/29 02:34:46;;;;;;;2.00;1.10;;;-1.20;99.90;;;;;;5051983;28;20032;-55
2021/01/29 02:37:45;;;;;;;4.88;1.50;;;-1.20;99.90;;;;;;5052843;28;20100;-56
2021/01/29 02:40:41;;;;;;;3.05;1.50;;;-1.20;99.90;;;;;;5052920;28;20033;-55
2021/01/29 02:43:34;;;;;;;3.60;1.60;;;-1.20;99.90;;;;;;5051988;28;20036;-56
2021/01/29 02:46:10;;;;;;;2.92;1.10;;;-1.10;99.90;;;;;;5051760;28;20380;-53
2021/01/29 02:49:12;;;;;;;2.22;0.98;;;-1.20;99.90;;;;;;5052835;28;20036;-54
2021/01/29 02:52:09;;;;;;;3.70;1.30;;;-1.20;99.90;;;;;;5037852;28;20392;-54
2021/01/29 02:55:00;;;;;;;3.88;1.33;;;-1.20;99.90;;;;;;5032625;28;20053;-57
2021/01/29 02:57:43;;;;;;;1.48;1.20;;;-1.10;99.90;;;;;;5031935;28;20055;-56
2021/01/29 03:00:37;;;;;;;4.22;1.13;;;-1.10;99.90;;;;;;5037742;28;20029;-56
2021/01/29 03:03:15;;;;;;;3.03;1.15;;;-1.10;99.90;;;;;;5014352;28;20037;-55
2021/01/29 03:05:48;;;;;;;2.67;1.35;;;-1.10;99.90;;;;;;5052685;28;20021;-55
2021/01/29 03:08:22;;;;;;;2.30;1.15;;;-1.20;99.90;;;;;;5052680;28;20060;-56
2021/01/29 03:11:03;;;;;;;2.28;1.00;;;-1.20;99.90;;;;;;5052609;28;20365;-56
2021/01/29 03:13:35;;;;;;;4.35;1.02;;;-1.20;99.90;;;;;;5051394;28;20029;-52
2021/01/29 03:16:18;;;;;;;3.75;1.38;;;-1.20;99.90;;;;;;5052646;28;20052;-57
2021/01/29 03:18:57;;;;;;;3.05;1.52;;;-1.30;99.90;;;;;;5052395;28;20052;-55
2021/01/29 03:21:30;;;;;;;2.58;1.10;;;-1.30;99.90;;;;;;5052462;28;20492;-55
2021/01/29 03:24:00;;;;;;;5.97;1.50;;;-1.30;99.90;;;;;;5052469;28;20439;-54
2021/01/29 03:26:36;;;;;;;2.10;1.25;;;-1.30;99.90;;;;;;5052389;28;20029;-57
2021/01/29 03:29:07;;;;;;;4.97;1.20;;;-1.30;99.90;;;;;;5051551;28;20051;-56
2021/01/29 03:31:35;;;;;;;3.88;1.20;;;-1.30;99.90;;;;;;5052145;28;20033;-56
2021/01/29 03:34:09;;;;;;;3.55;1.00;;;-1.30;99.90;;;;;;5052371;28;20478;-57
2021/01/29 03:36:46;;;;;;;3.67;1.30;;;-1.30;99.90;;;;;;5052133;28;20051;-56
2021/01/29 03:39:36;;;;;;;4.10;1.20;;;-1.30;99.90;;;;;;5052444;28;20484;-52
2021/01/29 03:42:23;;;;;;;2.60;1.30;;;-1.40;99.90;;;;;;5066600;28;20116;-57
2021/01/29 03:44:59;;;;;;;2.50;1.10;;;-1.40;99.90;;;;;;5052195;28;20029;-55
2021/01/29 03:47:31;;;;;;;;;;;-1.40;99.90;;;;;;5068030;28;20029;-55
2021/01/29 03:50:13;;;;;;;1.38;1.00;;;-1.50;99.90;;;;;;5053779;28;19995;-54
2021/01/29 03:52:59;;;;;;;4.32;1.33;;;-1.60;99.90;;;;;;5034677;28;20049;-55
2021/01/29 03:55:46;;;;;;;3.00;1.30;;;-1.60;99.90;;;;;;5036082;28;20038;-57
2021/01/29 03:58:24;;;;;;;3.28;1.20;;;-1.80;99.90;;;;;;5033887;28;20049;-56
2021/01/29 04:01:01;;;;;;;3.50;1.10;;;-1.90;99.90;;;;;;5046529;28;20035;-56
2021/01/29 04:03:38;;;;;;;1.77;0.90;;;-2.10;99.90;;;;;;5055866;28;20408;-56
2021/01/29 04:06:06;;;;;;;3.25;1.20;;;-2.20;99.90;;;;;;5056081;28;20060;-55
2021/01/29 04:08:38;;;;;;;1.98;1.05;;;-2.30;99.90;;;;;;5055898;28;20041;-56
2021/01/29 04:11:08;;;;;;;2.50;1.10;;;-2.40;99.90;;;;;;5055823;28;20083;-56
2021/01/29 04:13:40;;;;;;;1.75;1.42;;;-2.40;99.90;;;;;;5054930;28;20070;-55
2021/01/29 04:16:14;;;;;;;1.77;1.20;;;-2.50;99.90;;;;;;5055811;28;20052;-56
2021/01/29 04:19:13;;;;;;;1.85;1.33;;;-2.60;99.90;;;;;;5054346;28;20052;-56
2021/01/29 04:21:46;;;;;;;3.30;1.23;;;-2.70;99.90;;;;;;5055590;28;20025;-53
2021/01/29 04:24:21;;;;;;;2.90;1.25;;;-2.80;99.90;;;;;;5070817;28;20136;-53
2021/01/29 04:26:54;;;;;;;6.20;1.23;;;-2.80;99.90;;;;;;5055173;28;20028;-58
2021/01/29 04:29:32;;;;;;;2.47;1.27;;;-2.90;99.90;;;;;;5055570;28;20048;-53
2021/01/29 04:32:04;;;;;;;4.55;1.10;;;-2.90;99.90;;;;;;5070767;28;20032;-56
2021/01/29 04:34:34;;;;;;;2.45;1.20;;;-3.00;99.90;;;;;;5055531;28;20060;-54
2021/01/29 04:37:07;;;;;;;4.88;1.52;;;-3.10;99.90;;;;;;5055413;28;20025;-55
2021/01/29 04:39:39;;;;;;;2.08;1.15;;;-3.10;99.90;;;;;;5055356;28;20133;-56
2021/01/29 04:42:15;;;;;;;4.07;1.17;;;-3.20;99.90;;;;;;5054003;28;20029;-54
2021/01/29 04:44:56;;;;;;;1.98;1.20;;;-3.20;99.90;;;;;;5054009;28;20487;-55
2021/01/29 04:47:23;;;;;;;3.47;1.23;;;-3.20;99.90;;;;;;5055153;28;20021;-56
2021/01/29 04:50:20;;;;;;;2.45;1.15;;;-3.30;99.90;;;;;;5070622;28;20032;-55
2021/01/29 04:53:20;;;;;;;3.65;1.38;;;-3.20;99.90;;;;;;5015109;28;20030;-55
2021/01/29 04:56:03;;;;;;;2.42;1.52;;;-3.20;99.90;;;;;;5015340;28;20030;-52
2021/01/29 04:58:34;;;;;;;4.28;1.55;;;-3.20;99.90;;;;;;5014182;28;20057;-57
2021/01/29 05:01:37;;;;;;;3.08;1.58;;;-3.20;99.90;;;;;;5038861;28;20035;-55
2021/01/29 05:04:41;;;;;;;4.45;1.88;;;-3.20;99.90;;;;;;5054870;28;20017;-56
2021/01/29 05:07:40;;;;;;;3.50;1.55;;;-3.10;99.90;;;;;;5054961;28;20076;-55
2021/01/29 05:10:30;;;;;;;1.52;1.20;;;-3.10;99.90;;;;;;5054733;28;20017;-55
2021/01/29 05:13:20;;;;;;;4.60;1.50;;;-3.10;99.90;;;;;;5053526;28;20044;-56
2021/01/29 05:16:05;;;;;;;4.30;1.70;;;-3.10;99.90;;;;;;5054701;28;20029;-55
2021/01/29 05:19:00;;;;;;;3.55;1.67;;;-3.00;99.90;;;;;;5053217;28;20021;-55
2021/01/29 05:21:51;;;;;;;4.15;1.90;;;-3.00;99.90;;;;;;5054575;28;20037;-56
2021/01/29 05:24:43;;;;;;;3.17;1.25;;;-3.00;99.90;;;;;;5054532;28;20402;-56
2021/01/29 05:27:30;;;;;;;4.28;1.52;;;-3.10;99.90;;;;;;5047922;28;20397;-55
2021/01/29 05:30:17;;;;;;;4.45;1.50;;;-3.10;99.90;;;;;;5034547;28;20026;-56
2021/01/29 05:33:01;;;;;;;3.45;1.52;;;-3.10;99.90;;;;;;5034451;28;20100;-56
2021/01/29 05:35:42;;;;;;;5.15;1.75;;;-3.10;99.90;;;;;;5032010;28;20488;-52
2021/01/29 05:38:55;;;;;;;2.22;1.60;;;-3.10;99.90;;;;;;5034297;28;20021;-57
2021/01/29 05:41:40;;;;;;;2.78;1.50;;;-3.10;99.90;;;;;;4997654;28;20066;-55
2021/01/29 05:44:34;;;;;;;7.55;2.28;;;-3.20;99.90;;;;;;5033293;28;20060;-53
2021/01/29 05:47:13;;;;;;;2.22;1.20;;;-3.20;99.90;;;;;;5034198;28;20040;-54
2021/01/29 05:49:39;;;;;;;2.85;1.50;;;-3.20;99.90;;;;;;5034068;28;20030;-57
2021/01/29 05:52:28;;;;;;;2.63;1.40;;;-3.20;99.90;;;;;;5034096;28;20033;-56
2021/01/29 05:55:36;;;;;;;2.85;1.98;;;-3.20;99.90;;;;;;5033706;28;20049;-56
2021/01/29 05:58:38;;;;;;;3.85;2.13;;;-3.30;99.90;;;;;;5031742;28;20455;-55
2021/01/29 06:01:42;;;;;;;2.45;1.70;;;-3.30;99.90;;;;;;5033794;28;20128;-51
2021/01/29 06:04:24;;;;;;;4.55;1.70;;;-3.30;99.90;;;;;;5033823;28;20029;-56
2021/01/29 06:07:41;;;;;;;4.60;1.67;;;-3.40;99.90;;;;;;5034002;28;20025;-54
2021/01/29 06:10:22;;;;;;;5.80;1.70;;;-3.50;99.90;;;;;;5000409;28;20527;-55
2021/01/29 06:12:53;;;;;;;6.07;1.88;;;-3.70;99.90;;;;;;5030865;28;20018;-57
2021/01/29 06:15:43;;;;;;;5.88;1.75;;;-3.80;99.90;;;;;;5033809;28;20361;-56
2021/01/29 06:18:37;;;;;;;5.53;1.55;;;-3.90;99.90;;;;;;5033786;28;20060;-56
2021/01/29 06:21:11;;;;;;;3.88;1.83;;;-4.10;99.90;;;;;;5033477;28;20045;-55
2021/01/29 06:24:13;;;;;;;4.07;1.83;;;-4.20;99.90;;;;;;5033589;28;20017;-56
2021/01/29 06:26:49;;;;;;;2.60;1.30;;;-4.30;99.90;;;;;;5033611;28;20052;-56
2021/01/29 06:29:26;;;;;;;3.25;1.70;;;-4.40;99.90;;;;;;5033317;28;20061;-51
2021/01/29 06:32:17;;;;;;;4.25;1.52;;;-4.50;99.90;;;;;;5030080;28;20067;-56
2021/01/29 06:34:55;;;;;;;2.60;1.40;;;-4.50;99.90;;;;;;5051513;28;20032;-56
2021/01/29 06:37:32;;;;;;;3.92;1.70;;;-4.60;99.90;;;;;;5052328;28;20025;-54
2021/01/29 06:40:39;;;;;;;5.18;2.42;;;-4.50;99.90;;;;;;5012051;28;20102;-56
2021/01/29 06:43:19;;;;;;;3.13;1.80;;;-4.60;99.90;;;;;;5011471;28;20037;-55
2021/01/29 06:46:19;;;;;;;7.28;2.65;;;-4.60;99.90;;;;;;5012763;28;20026;-56
2021/01/29 06:49:03;;;;;;;7.53;3.10;;;-4.60;99.90;;;;;;5012937;28;20032;-55
2021/01/29 06:51:48;;;;;;;7.53;2.30;;;-4.60;99.90;;;;;;5026270;28;20417;-54
2021/01/29 06:54:27;;;;;;;5.55;3.13;;;-4.60;99.90;;;;;;5031929;28;20067;-53
2021/01/29 06:57:18;;;;;;;11.88;4.78;;;-4.70;99.90;;;;;;5031285;28;20440;-57
2021/01/29 07:00:21;;;;;;;13.77;5.47;;;-4.70;99.90;;;;;;5032282;28;20048;-54
2021/01/29 07:03:08;;;;;;;8.95;3.70;;;-4.70;99.90;;;;;;5032123;28;20041;-53
2021/01/29 07:06:10;;;;;;;5.13;2.92;;;-4.70;99.90;;;;;;5032489;28;20026;-54
2021/01/29 07:09:11;;;;;;;7.35;3.58;;;-4.60;99.90;;;;;;5032463;28;20029;-54
2021/01/29 07:12:15;;;;;;;5.07;2.70;;;-4.50;99.90;;;;;;5032244;28;20146;-55
2021/01/29 07:14:54;;;;;;;5.60;2.10;;;-4.40;99.90;;;;;;5032068;28;20032;-56
2021/01/29 07:17:42;;;;;;;4.30;2.00;;;-4.30;99.90;;;;;;5030787;28;20026;-54
2021/01/29 07:20:50;;;;;;;2.05;1.52;;;-4.10;99.90;;;;;;5032015;28;20025;-56
2021/01/29 07:23:37;;;;;;;4.10;2.05;;;-4.00;99.90;;;;;;5007973;28;20041;-55
2021/01/29 07:26:27;;;;;;;6.38;2.47;;;-3.90;99.90;;;;;;5032091;28;20100;-53
2021/01/29 07:29:25;;;;;;;7.82;3.25;;;-3.70;99.90;;;;;;5031179;28;20026;-56
2021/01/29 07:32:21;;;;;;;10.80;3.50;;;-3.50;99.90;;;;;;5027706;28;20121;-53
2021/01/29 07:35:16;;;;;;;6.10;2.88;;;-3.30;99.90;;;;;;5032095;28;20477;-56
2021/01/29 07:38:18;;;;;;;7.78;2.53;;;-3.10;99.90;;;;;;5032328;28;20052;-54
2021/01/29 07:41:26;;;;;;;7.55;2.78;;;-2.90;99.90;;;;;;5032038;28;20029;-54
2021/01/29 07:44:10;;;;;;;9.23;2.58;;;-2.70;99.90;;;;;;4967450;28;20034;-54
2021/01/29 07:47:09;;;;;;;7.10;4.60;;;-2.60;99.90;;;;;;5029461;28;20029;-54
2021/01/29 07:50:09;;;;;;;5.88;3.22;;;-2.40;99.90;;;;;;5031517;28;20029;-56
2021/01/29 07:52:53;;;;;;;4.95;2.33;;;-2.30;99.90;;;;;;5011649;28;20033;-54
2021/01/29 07:55:23;;;;;;;5.28;2.70;;;-2.20;99.90;;;;;;5012077;28;20034;-54
2021/01/29 07:58:16;;;;;;;3.97;2.83;;;-2.10;99.90;;;;;;5026396;28;20112;-56
2021/01/29 08:00:44;;;;;;;6.20;3.08;;;-2.00;99.90;;;;;;5030676;28;20029;-55
2021/01/29 08:03:34;;;;;;;7.63;3.50;;;-2.00;99.90;;;;;;5050318;28;20056;-55
2021/01/29 08:06:14;;;;;;;16.70;3.30;;;-1.90;99.90;;;;;;5051779;28;20021;-55
2021/01/29 08:09:05;;;;;;;10.18;3.35;;;-1.90;99.90;;;;;;5051824;28;20017;-54
2021/01/29 08:11:38;;;;;;;7.72;3.45;;;-1.80;99.90;;;;;;5051407;28;20036;-54
2021/01/29 08:14:21;;;;;;;7.90;3.53;;;-1.70;99.90;;;;;;5050694;28;20075;-56
2021/01/29 08:16:59;;;;;;;6.80;2.30;;;-1.60;99.90;;;;;;5051568;28;20056;-53
2021/01/29 08:19:37;;;;;;;8.65;3.72;;;-1.50;99.90;;;;;;5051712;28;20066;-56
2021/01/29 08:22:12;;;;;;;4.93;2.78;;;-1.40;99.90;;;;;;5051351;28;20021;-56
2021/01/29 08:25:07;;;;;;;5.65;3.50;;;-1.40;99.90;;;;;;5051525;28;20017;-57
2021/01/29 08:28:03;;;;;;;7.32;3.38;;;-1.30;99.90;;;;;;5050594;28;20032;-55
2021/01/29 08:30:46;;;;;;;7.43;3.30;;;-1.20;99.90;;;;;;5051542;28;20476;-50
2021/01/29 08:33:34;;;;;;;7.35;3.63;;;-1.20;99.90;;;;;;5051265;28;20131;-54
2021/01/29 08:36:42;;;;;;;6.78;2.75;;;-1.10;99.90;;;;;;5053748;28;20025;-54
2021/01/29 08:39:29;;;;;;;4.22;3.20;;;-1.00;99.90;;;;;;5054897;28;20411;-53
2021/01/29 08:42:08;;;;;;;5.47;2.75;;;-1.00;99.90;;;;;;5054086;28;20039;-52
2021/01/29 08:45:05;;;;;;;5.68;3.45;;;-1.00;99.90;;;;;;5054956;28;20025;-53
2021/01/29 08:47:45;;;;;;;6.95;3.22;;;-0.90;99.90;;;;;;5054982;28;20032;-54
2021/01/29 08:50:27;;;;;;;10.43;5.25;;;-0.80;99.90;;;;;;5067496;28;20485;-55
2021/01/29 08:53:39;;;;;;;8.63;3.38;;;-0.70;99.90;;;;;;5035011;28;20041;-56
2021/01/29 08:56:13;;;;;;;5.95;2.78;;;-0.60;99.90;;;;;;5034889;28;20101;-52
2021/01/29 08:58:53;;;;;;;4.70;2.80;;;-0.50;99.90;;;;;;5032796;28;20021;-51
2021/01/29 09:01:52;;;;;;;8.55;2.95;;;-0.30;99.90;;;;;;5049155;28;20037;-52
2021/01/29 09:04:26;;;;;;;7.20;2.78;;;-0.20;99.90;;;;;;5053169;28;20017;-55
2021/01/29 09:06:55;;;;;;;5.18;3.03;;;-0.10;99.90;;;;;;5054706;28;20091;-54
2021/01/29 09:09:25;;;;;;;4.63;2.60;;;0.00;99.90;;;;;;5054631;28;20029;-55
2021/01/29 09:11:53;;;;;;;10.45;2.58;;;0.10;99.90;;;;;;5053663;28;20036;-52
2021/01/29 09:14:35;;;;;;;6.00;3.15;;;0.10;99.90;;;;;;5054408;28;20464;-54
2021/01/29 09:17:19;;;;;;;9.98;3.50;;;0.20;99.90;;;;;;5054302;28;20226;-53
2021/01/29 09:19:57;;;;;;;7.88;3.17;;;0.30;99.90;;;;;;5070049;28;20040;-52
2021/01/29 09:22:35;;;;;;;11.85;5.32;;;0.40;99.90;;;;;;5054245;28;20025;-52
2021/01/29 09:25:16;;;;;;;53.08;16.70;;;0.40;99.90;;;;;;5069760;28;20488;-51
2021/01/29 09:28:02;;;;;;;40.05;12.13;;;0.40;99.90;;;;;;5053601;28;20070;-55
2021/01/29 09:30:32;;;;;;;37.58;16.20;;;0.40;99.90;;;;;;5054351;28;20391;-55
2021/01/29 09:33:22;;;;;;;8.95;4.63;;;0.40;99.90;;;;;;5053887;28;20025;-55
2021/01/29 09:35:50;;;;;;;8.35;3.00;;;0.40;99.90;;;;;;5054188;28;20029;-53
2021/01/29 09:38:21;;;;;;;5.45;3.47;;;0.40;99.90;;;;;;5053880;28;20033;-52
2021/01/29 09:40:57;;;;;;;7.13;2.88;;;0.40;99.90;;;;;;5053949;28;20033;-52
2021/01/29 09:43:52;;;;;;;3.47;2.95;;;0.40;99.90;;;;;;5052779;28;20202;-52
2021/01/29 09:46:31;;;;;;;10.85;3.15;;;0.30;99.90;;;;;;5053060;28;20104;-52
2021/01/29 09:49:07;;;;;;;6.97;3.35;;;0.40;99.90;;;;;;5053716;28;20384;-55
2021/01/29 09:51:43;;;;;;;5.05;3.13;;;0.50;99.90;;;;;;5039839;28;20028;-55
2021/01/29 09:54:28;;;;;;;7.80;4.00;;;0.60;99.90;;;;;;5033746;28;20519;-55
2021/01/29 09:57:00;;;;;;;5.70;3.08;;;0.60;99.90;;;;;;5032985;28;20030;-55
2021/01/29 09:59:40;;;;;;;8.27;2.97;;;0.50;99.90;;;;;;5033734;28;20718;-53
2021/01/29 10:02:12;;;;;;;3.70;2.78;;;0.40;99.90;;;;;;5013672;28;20516;-56
2021/01/29 10:05:06;;;;;;;6.32;2.92;;;0.50;99.90;;;;;;5029067;28;20026;-54
2021/01/29 10:07:35;;;;;;;7.57;3.65;;;0.60;99.90;;;;;;5028878;28;20065;-51
2021/01/29 10:10:31;;;;;;;8.32;3.28;;;0.60;99.90;;;;;;5028910;28;20545;-53
2021/01/29 10:13:09;;;;;;;10.70;4.57;;;0.60;99.90;;;;;;5012032;28;20386;-55
2021/01/29 10:15:46;;;;;;;6.20;3.58;;;0.60;99.90;;;;;;5013561;28;20178;-52
2021/01/29 10:18:17;;;;;;;10.55;3.30;;;0.60;99.90;;;;;;5013561;28;20018;-54
2021/01/29 10:20:42;;;;;;;10.48;5.00;;;0.60;99.90;;;;;;5028945;28;20349;-55
2021/01/29 10:23:17;;;;;;;13.68;7.80;;;0.70;99.90;;;;;;5013207;28;20093;-54
2021/01/29 10:26:10;;;;;;;7.72;4.03;;;0.70;99.90;;;;;;5013311;28;20461;-54
2021/01/29 10:29:00;;;;;;;6.85;4.03;;;0.70;99.90;;;;;;5012672;28;20072;-52
2021/01/29 10:31:28;;;;;;;8.05;3.38;;;0.70;99.90;;;;;;5012737;28;20114;-53
2021/01/29 10:34:22;;;;;;;5.45;2.50;;;0.80;99.90;;;;;;5013018;28;20033;-53
2021/01/29 10:37:06;;;;;;;9.48;3.10;;;0.80;99.90;;;;;;5013207;28;20033;-53
2021/01/29 10:39:54;;;;;;;6.93;3.05;;;0.70;99.50;;;;;;5012860;28;20033;-52
2021/01/29 10:42:26;;;;;;;7.07;3.40;;;0.70;98.70;;;;;;5011718;28;20029;-53
2021/01/29 10:44:53;;;;;;;7.03;3.15;;;0.80;99.00;;;;;;5013077;28;20064;-51
2021/01/29 10:47:31;;;;;;;16.50;5.13;;;0.80;98.80;;;;;;5012777;28;20022;-54
2021/01/29 10:49:57;;;;;;;9.52;3.80;;;0.80;98.60;;;;;;5013398;28;20025;-51
2021/01/29 10:52:29;;;;;;;13.60;4.43;;;0.80;98.50;;;;;;5032360;28;20037;-51
2021/01/29 10:54:57;;;;;;;7.97;3.42;;;0.80;98.20;;;;;;5031227;28;20067;-55
2021/01/29 10:57:44;;;;;;;5.68;3.58;;;0.80;98.10;;;;;;5031755;28;20381;-55
2021/01/29 11:00:23;;;;;;;8.02;3.67;;;0.80;98.40;;;;;;5032056;28;20028;-54
2021/01/29 11:03:09;;;;;;;5.97;3.00;;;0.80;98.30;;;;;;5032077;28;20049;-53
2021/01/29 11:05:40;;;;;;;6.45;3.25;;;0.80;98.50;;;;;;5032174;28;20052;-54
2021/01/29 11:08:29;;;;;;;7.47;2.88;;;0.90;98.20;;;;;;5032484;28;20384;-51
2021/01/29 11:11:07;;;;;;;6.22;3.55;;;0.90;98.20;;;;;;5032313;28;20033;-51
2021/01/29 11:14:02;;;;;;;6.65;2.85;;;1.00;98.20;;;;;;5030083;28;20365;-53
2021/01/29 11:16:53;;;;;;;7.40;2.80;;;0.90;97.30;;;;;;5010188;28;20037;-53
2021/01/29 11:19:23;;;;;;;9.68;3.70;;;1.00;97.80;;;;;;5032199;28;20025;-50
2021/01/29 11:22:14;;;;;;;6.95;3.35;;;1.10;96.70;;;;;;5032076;28;20040;-54
2021/01/29 11:25:07;;;;;;;6.28;2.55;;;1.10;95.10;;;;;;5025440;28;20532;-55
2021/01/29 11:27:36;;;;;;;6.07;2.92;;;1.10;95.60;;;;;;5030785;28;20033;-56
2021/01/29 11:30:16;;;;;;;6.07;3.67;;;1.20;95.60;;;;;;5031191;28;20028;-53
2021/01/29 11:32:44;;;;;;;11.57;3.58;;;1.30;94.40;;;;;;5032189;28;20022;-51
2021/01/29 11:35:37;;;;;;;7.78;3.90;;;1.30;94.60;;;;;;5030547;28;20040;-53
2021/01/29 11:38:15;;;;;;;6.05;2.95;;;1.30;93.90;;;;;;5026048;28;20411;-55
2021/01/29 11:40:57;;;;;;;7.28;2.75;;;1.30;93.50;;;;;;5030474;28;20033;-52
2021/01/29 11:43:42;;;;;;;7.63;2.30;;;1.30;93.10;;;;;;5028163;28;20035;-55
2021/01/29 11:46:27;;;;;;;7.45;2.90;;;1.40;93.20;;;;;;5030672;28;20427;-52
2021/01/29 11:49:08;;;;;;;5.72;2.95;;;1.40;93.60;;;;;;5030409;28;20032;-55
2021/01/29 11:51:42;;;;;;;5.75;2.55;;;1.50;93.00;;;;;;5029799;28;20036;-55
2021/01/29 11:54:18;;;;;;;8.27;2.92;;;1.60;92.70;;;;;;5030272;28;20160;-56
2021/01/29 11:57:05;;;;;;;;;;;1.60;91.50;;;;;;5029889;28;20039;-56
2021/01/29 11:59:55;;;;;;;5.50;2.20;;;1.60;91.80;;;;;;5029818;28;19948;-54
2021/01/29 12:02:47;;;;;;;8.23;2.55;;;1.70;92.10;;;;;;5029587;28;20284;-54
2021/01/29 12:05:26;;;;;;;4.47;2.67;;;1.70;91.70;;;;;;5029981;28;20520;-56
2021/01/29 12:08:03;;;;;;;4.32;3.03;;;1.70;91.90;;;;;;5030171;28;20029;-54
2021/01/29 12:10:55;;;;;;;3.85;2.30;;;1.80;91.00;;;;;;5031687;28;20029;-56
2021/01/29 12:13:37;;;;;;;5.00;2.25;;;1.80;91.20;;;;;;5032937;28;20033;-55
2021/01/29 12:16:09;;;;;;;6.20;3.42;;;1.80;90.90;;;;;;5034096;28;20511;-54
2021/01/29 12:18:36;;;;;;;4.53;1.90;;;1.80;91.50;;;;;;5033707;28;20029;-53
2021/01/29 12:21:28;;;;;;;5.00;2.60;;;1.80;91.30;;;;;;5032619;28;20025;-55
2021/01/29 12:24:24;;;;;;;10.82;2.50;;;1.70;91.60;;;;;;5033869;28;20053;-54
2021/01/29 12:27:12;;;;;;;4.57;2.35;;;1.80;92.00;;;;;;5032841;28;20108;-52
2021/01/29 12:30:09;;;;;;;3.97;2.70;;;1.80;92.10;;;;;;5033792;28;20032;-51
2021/01/29 12:32:53;;;;;;;6.28;2.55;;;1.80;92.20;;;;;;5029971;28;20037;-53
2021/01/29 12:35:43;;;;;;;3.25;2.20;;;1.80;92.40;;;;;;5033768;28;20492;-56
2021/01/29 12:38:18;;;;;;;4.60;2.95;;;1.80;92.70;;;;;;5033277;28;20022;-51
2021/01/29 12:40:49;;;;;;;4.28;2.40;;;1.80;92.30;;;;;;5033144;28;20481;-54
2021/01/29 12:43:40;;;;;;;6.40;2.65;;;1.80;92.10;;;;;;5032534;28;20108;-53
2021/01/29 12:46:14;;;;;;;3.60;2.00;;;1.70;92.50;;;;;;5033577;28;20484;-56
2021/01/29 12:48:51;;;;;;;4.50;2.53;;;1.70;92.40;;;;;;5033367;28;20032;-54
2021/01/29 12:51:23;;;;;;;14.98;4.05;;;1.70;92.20;;;;;;5033288;28;20037;-56
2021/01/29 12:53:59;;;;;;;3.92;2.80;;;1.70;91.90;;;;;;5032988;28;20104;-54
2021/01/29 12:56:37;;;;;;;7.93;2.95;;;1.60;91.60;;;;;;5033555;28;20041;-51
2021/01/29 12:59:05;;;;;;;5.20;3.45;;;1.50;91.50;;;;;;5033135;28;20095;-51
2021/01/29 13:01:33;;;;;;;13.93;6.47;;;1.30;91.00;;;;;;5033102;28;20033;-52
2021/01/29 13:04:05;;;;;;;43.35;15.10;;;1.20;91.30;;;;;;5033248;28;20401;-55
2021/01/29 13:06:51;;;;;;;11.43;4.88;;;1.20;91.10;;;;;;5033123;28;20045;-51
2021/01/29 13:09:28;;;;;;;5.80;3.40;;;1.10;91.30;;;;;;5033053;28;20618;-55
2021/01/29 13:12:01;;;;;;;5.57;3.28;;;1.10;91.60;;;;;;5031822;28;20497;-54
2021/01/29 13:14:32;;;;;;;7.93;2.75;;;1.10;91.80;;;;;;5033028;28;20480;-51
2021/01/29 13:17:19;;;;;;;5.57;2.67;;;1.10;92.20;;;;;;5032931;28;20033;-55
2021/01/29 13:19:47;;;;;;;4.43;2.63;;;1.10;92.50;;;;;;5032745;28;20033;-56
2021/01/29 13:22:18;;;;;;;7.53;3.22;;;1.10;92.50;;;;;;5030950;28;20022;-53
2021/01/29 13:24:59;;;;;;;5.05;3.08;;;1.10;92.70;;;;;;5032767;28;20496;-56
2021/01/29 13:27:28;;;;;;;13.23;4.50;;;1.20;92.80;;;;;;5030648;28;20556;-52
2021/01/29 13:30:16;;;;;;;13.85;6.30;;;1.20;93.00;;;;;;5029906;28;20017;-53
2021/01/29 13:32:42;;;;;;;6.40;3.38;;;1.10;92.90;;;;;;5016473;28;20022;-52
2021/01/29 13:35:10;;;;;;;6.70;3.65;;;1.10;93.00;;;;;;5027769;28;20205;-54
2021/01/29 13:37:37;;;;;;;6.90;3.03;;;1.10;93.00;;;;;;5047197;28;20481;-55
2021/01/29 13:40:13;;;;;;;6.82;3.42;;;1.10;93.20;;;;;;5032578;28;20033;-55
2021/01/29 13:42:41;;;;;;;6.25;2.92;;;1.00;92.90;;;;;;5019378;28;20112;-51
2021/01/29 13:45:22;;;;;;;6.32;2.58;;;0.90;92.80;;;;;;5032472;28;20560;-56
2021/01/29 13:48:15;;;;;;;4.05;2.20;;;0.90;92.80;;;;;;5032244;28;20034;-56
2021/01/29 13:50:50;;;;;;;4.20;2.25;;;0.90;92.60;;;;;;5032355;28;20026;-54
2021/01/29 13:53:27;;;;;;;5.93;3.05;;;0.80;92.40;;;;;;5029445;28;20056;-52
2021/01/29 13:56:18;;;;;;;4.28;2.72;;;0.80;92.20;;;;;;5017532;28;20033;-56
2021/01/29 13:58:51;;;;;;;7.38;2.92;;;0.70;92.00;;;;;;5031268;28;20503;-51